Time;durP1;ratioP1;P1;durP2;ratioP2;P2;SDS_P1;SDS_P2;PMS_P1;PMS_P2;Temp;Humidity;BMP_temperature;BMP_pressure;BME280_temperature;BME280_humidity;BME280_pressure;Samples;Min_cycle;Max_cycle;Signal;HPM_P1;HPM_P2
2022/11/17 00:01:28;;;;;;;7.25;6.25;;;;;;;;;;5033340;28;20670;-63
2022/11/17 00:03:55;;;;;;;6.03;5.32;;;;;;;;;;5034209;28;20202;-63
2022/11/17 00:06:22;;;;;;;6.72;5.72;;;;;;;;;;5033914;28;20202;-62
2022/11/17 00:08:49;;;;;;;7.38;6.50;;;;;;;;;;5033786;28;20233;-62
2022/11/17 00:11:16;;;;;;;7.18;6.05;;;;;;;;;;5033610;28;20693;-63
2022/11/17 00:16:30;;;;;;;8.23;6.50;;;;;;;;;;5033347;28;20559;-65
2022/11/17 00:21:41;;;;;;;8.85;7.10;;;;;;;;;;5034386;28;20272;-64
2022/11/17 00:24:09;;;;;;;9.90;8.35;;;;;;;;;;5034451;28;20671;-63
2022/11/17 00:27:00;;;;;;;10.00;7.70;;;;;;;;;;5039297;28;20202;-64
2022/11/17 00:29:24;;;;;;;10.20;6.65;;;;;;;;;;5038846;28;20202;-61
2022/11/17 00:34:37;;;;;;;8.55;6.75;;;;;;;;;;5038631;28;20229;-64
2022/11/17 00:37:04;;;;;;;10.95;7.95;;;;;;;;;;5037830;28;20310;-63
2022/11/17 00:39:32;;;;;;;9.60;7.43;;;;;;;;;;5038286;28;20206;-63
2022/11/17 00:41:59;;;;;;;9.23;7.43;;;;;;;;;;5037703;28;20202;-64
2022/11/17 00:44:27;;;;;;;9.82;7.57;;;;;;;;;;5037108;28;20198;-63
2022/11/17 00:46:55;;;;;;;9.25;7.32;;;;;;;;;;5036952;28;20666;-63
2022/11/17 00:49:25;;;;;;;9.88;7.40;;;;;;;;;;5038043;28;20202;-63
2022/11/17 00:51:52;;;;;;;10.32;7.65;;;;;;;;;;5037027;28;20207;-64
2022/11/17 00:54:19;;;;;;;8.48;6.80;;;;;;;;;;5037071;28;20225;-62
2022/11/17 00:56:46;;;;;;;10.60;6.95;;;;;;;;;;5036453;28;20690;-63
2022/11/17 00:59:13;;;;;;;10.18;8.07;;;;;;;;;;5037406;28;20198;-64
2022/11/17 01:01:41;;;;;;;10.88;7.32;;;;;;;;;;5036490;28;20210;-63
2022/11/17 01:04:09;;;;;;;9.00;6.90;;;;;;;;;;5036534;28;20384;-64
2022/11/17 01:06:37;;;;;;;8.82;7.30;;;;;;;;;;5036498;28;20206;-63
2022/11/17 01:09:05;;;;;;;8.80;6.70;;;;;;;;;;5037299;28;20211;-62
2022/11/17 01:11:32;;;;;;;9.25;7.15;;;;;;;;;;5036370;28;20217;-64
2022/11/17 01:14:00;;;;;;;8.27;6.68;;;;;;;;;;5036378;28;20206;-63
2022/11/17 01:16:27;;;;;;;9.45;7.43;;;;;;;;;;5036214;28;20213;-62
2022/11/17 01:18:55;;;;;;;10.48;7.53;;;;;;;;;;5036259;28;20218;-63
2022/11/17 01:21:24;;;;;;;9.73;7.63;;;;;;;;;;5036298;28;20571;-63
2022/11/17 01:23:52;;;;;;;12.13;7.82;;;;;;;;;;5036303;28;20206;-63
2022/11/17 01:26:20;;;;;;;8.32;6.90;;;;;;;;;;5036230;28;20568;-63
2022/11/17 01:28:47;;;;;;;8.85;7.30;;;;;;;;;;5036012;28;20229;-63
2022/11/17 01:31:16;;;;;;;10.55;7.93;;;;;;;;;;5035978;28;20198;-63
2022/11/17 01:33:43;;;;;;;13.00;9.45;;;;;;;;;;5036235;28;20221;-63
2022/11/17 01:36:12;;;;;;;10.32;7.90;;;;;;;;;;5035682;28;20687;-63
2022/11/17 01:38:40;;;;;;;11.63;8.55;;;;;;;;;;5035063;28;20226;-63
2022/11/17 01:41:08;;;;;;;9.98;7.55;;;;;;;;;;5039945;28;20202;-63
2022/11/17 01:43:39;;;;;;;9.32;7.32;;;;;;;;;;5044119;28;20213;-64
2022/11/17 01:46:09;;;;;;;12.05;9.48;;;;;;;;;;5058801;28;20204;-63
2022/11/17 01:48:36;;;;;;;9.23;7.07;;;;;;;;;;5047456;28;20569;-63
2022/11/17 01:51:04;;;;;;;8.40;7.25;;;;;;;;;;5040652;28;20568;-64
2022/11/17 01:53:34;;;;;;;9.75;6.38;;;;;;;;;;5039739;28;20619;-63
2022/11/17 01:56:04;;;;;;;10.65;8.45;;;;;;;;;;5038180;28;20319;-63
2022/11/17 01:58:34;;;;;;;9.60;7.85;;;;;;;;;;5039050;28;20238;-62
2022/11/17 02:01:01;;;;;;;13.38;9.45;;;;;;;;;;5036432;28;20209;-63
2022/11/17 02:03:28;;;;;;;9.85;7.57;;;;;;;;;;5035802;28;20199;-63
2022/11/17 02:05:58;;;;;;;9.05;7.30;;;;;;;;;;5035744;28;20203;-63
2022/11/17 02:08:28;;;;;;;9.35;7.40;;;;;;;;;;5035098;28;20222;-63
2022/11/17 02:10:55;;;;;;;9.43;8.00;;;;;;;;;;5035311;28;20213;-63
2022/11/17 02:13:24;;;;;;;8.35;6.93;;;;;;;;;;5035279;28;20210;-63
2022/11/17 02:15:51;;;;;;;9.52;7.15;;;;;;;;;;5038298;28;20702;-61
2022/11/17 02:18:18;;;;;;;8.55;6.75;;;;;;;;;;5035007;28;20707;-63
2022/11/17 02:20:52;;;;;;;8.50;7.10;;;;;;;;;;5034802;28;20206;-63
2022/11/17 02:23:34;;;;;;;8.88;7.43;;;;;;;;;;5035554;28;20197;-63
2022/11/17 02:26:18;;;;;;;7.15;6.25;;;;;;;;;;5035584;28;20187;-63
2022/11/17 02:28:49;;;;;;;9.45;7.38;;;;;;;;;;5034692;28;20241;-62
2022/11/17 02:31:20;;;;;;;8.43;7.20;;;;;;;;;;5034991;28;20182;-63
2022/11/17 02:33:52;;;;;;;10.32;7.05;;;;;;;;;;5034936;28;20191;-63
2022/11/17 02:36:22;;;;;;;7.80;6.05;;;;;;;;;;5034631;28;20214;-63
2022/11/17 02:38:53;;;;;;;6.80;6.05;;;;;;;;;;5034962;28;20230;-62
2022/11/17 02:41:22;;;;;;;7.50;6.45;;;;;;;;;;5034716;28;20285;-63
2022/11/17 02:44:03;;;;;;;7.25;6.55;;;;;;;;;;5035061;28;20253;-64
2022/11/17 02:46:34;;;;;;;8.55;6.07;;;;;;;;;;5034139;28;20190;-63
2022/11/17 02:49:05;;;;;;;6.82;5.88;;;;;;;;;;5033234;28;20230;-63
2022/11/17 02:51:33;;;;;;;7.38;6.15;;;;;;;;;;5034777;28;20190;-63
2022/11/17 02:54:02;;;;;;;9.43;7.25;;;;;;;;;;5034433;28;20206;-63
2022/11/17 02:56:29;;;;;;;8.85;6.72;;;;;;;;;;5034028;28;20745;-63
2022/11/17 02:59:00;;;;;;;7.63;6.90;;;;;;;;;;5034296;28;20245;-63
2022/11/17 03:01:34;;;;;;;8.85;6.40;;;;;;;;;;5033963;28;20233;-64
2022/11/17 03:04:11;;;;;;;8.38;7.45;;;;;;;;;;5033956;28;20665;-64
2022/11/17 03:06:42;;;;;;;8.32;6.78;;;;;;;;;;5034669;28;20186;-62
2022/11/17 03:09:11;;;;;;;10.13;7.10;;;;;;;;;;5034776;28;20186;-62
2022/11/17 03:11:44;;;;;;;8.27;6.22;;;;;;;;;;5036402;28;20588;-63
2022/11/17 03:14:15;;;;;;;9.80;7.28;;;;;;;;;;5037651;28;20198;-62
2022/11/17 03:16:46;;;;;;;8.45;7.28;;;;;;;;;;5036475;28;20210;-62
2022/11/17 03:19:17;;;;;;;9.25;6.72;;;;;;;;;;5038465;28;20207;-63
2022/11/17 03:21:46;;;;;;;8.65;6.43;;;;;;;;;;5040026;28;20186;-62
2022/11/17 03:24:15;;;;;;;8.57;6.55;;;;;;;;;;5039121;28;20620;-63
2022/11/17 03:26:44;;;;;;;7.88;6.68;;;;;;;;;;5036965;28;20203;-63
2022/11/17 03:29:15;;;;;;;7.95;6.40;;;;;;;;;;5042863;28;20212;-63
2022/11/17 03:31:44;;;;;;;9.68;6.85;;;;;;;;;;5038851;28;20202;-62
2022/11/17 03:34:14;;;;;;;9.20;6.43;;;;;;;;;;5036109;28;20206;-60
2022/11/17 03:36:42;;;;;;;8.70;7.20;;;;;;;;;;5035997;28;20218;-62
2022/11/17 03:39:12;;;;;;;9.38;7.28;;;;;;;;;;5037205;28;20578;-63
2022/11/17 03:41:42;;;;;;;8.90;7.20;;;;;;;;;;5037050;28;20209;-63
2022/11/17 03:44:09;;;;;;;9.82;8.10;;;;;;;;;;5035120;28;20290;-62
2022/11/17 03:46:39;;;;;;;9.30;7.22;;;;;;;;;;5034492;28;20686;-62
2022/11/17 03:49:09;;;;;;;10.40;7.57;;;;;;;;;;5033971;28;20214;-62
2022/11/17 03:51:37;;;;;;;11.88;7.45;;;;;;;;;;5034886;28;20190;-62
2022/11/17 03:54:04;;;;;;;8.95;7.30;;;;;;;;;;5034382;28;20202;-63
2022/11/17 03:56:35;;;;;;;9.35;7.63;;;;;;;;;;5034427;28;20592;-63
2022/11/17 03:59:04;;;;;;;8.27;6.50;;;;;;;;;;5034812;28;20222;-63
2022/11/17 04:01:32;;;;;;;9.75;8.15;;;;;;;;;;5034151;28;20245;-62
2022/11/17 04:04:01;;;;;;;11.68;8.60;;;;;;;;;;5034374;28;20205;-62
2022/11/17 04:06:28;;;;;;;9.20;7.55;;;;;;;;;;5033874;28;20567;-62
2022/11/17 04:15:55;;;;;;;9.43;7.50;;;;;;;;;;5091295;28;20557;-63
2022/11/17 04:16:08;;;;;;;8.75;7.43;;;;;;;;;;5090575;28;20184;-63
2022/11/17 04:18:35;;;;;;;11.13;8.73;;;;;;;;;;5090867;28;20232;-62
2022/11/17 04:21:02;;;;;;;8.70;7.68;;;;;;;;;;5091597;28;20200;-63
2022/11/17 04:23:29;;;;;;;10.68;8.48;;;;;;;;;;5074843;22;20226;-59
2022/11/17 04:28:44;;;;;;;9.00;7.80;;;;;;;;;;5050177;28;20661;-61
2022/11/17 04:31:13;;;;;;;10.98;9.30;;;;;;;;;;5049919;28;20201;-60
2022/11/17 04:33:41;;;;;;;8.68;7.60;;;;;;;;;;5049913;28;20230;-61
2022/11/17 04:36:08;;;;;;;11.25;8.65;;;;;;;;;;5049562;28;20213;-60
2022/11/17 04:38:35;;;;;;;9.98;7.40;;;;;;;;;;5049854;28;20209;-60
2022/11/17 04:43:53;;;;;;;9.63;7.97;;;;;;;;;;5049553;28;20225;-61
2022/11/17 04:46:21;;;;;;;10.50;8.52;;;;;;;;;;5049527;28;20217;-60
2022/11/17 04:48:48;;;;;;;8.95;7.68;;;;;;;;;;5049289;28;20230;-60
2022/11/17 04:51:16;;;;;;;9.52;7.97;;;;;;;;;;5049598;28;20225;-60
2022/11/17 04:53:43;;;;;;;8.85;7.45;;;;;;;;;;5049481;28;20233;-60
2022/11/17 04:56:12;;;;;;;10.15;7.97;;;;;;;;;;5049516;28;20205;-60
2022/11/17 04:58:39;;;;;;;10.30;8.13;;;;;;;;;;5049105;28;20209;-60
2022/11/17 05:01:12;;;;;;;10.82;7.57;;;;;;;;;;5049231;28;20198;-61
2022/11/17 05:03:40;;;;;;;12.43;8.43;;;;;;;;;;5049264;28;20222;-61
2022/11/17 05:06:07;;;;;;;10.45;8.52;;;;;;;;;;5048961;28;20619;-60
2022/11/17 05:08:35;;;;;;;10.15;8.25;;;;;;;;;;5049271;28;20201;-62
2022/11/17 05:13:50;;;;;;;14.20;8.80;;;;;;;;;;5049076;28;20220;-60
2022/11/17 05:19:02;;;;;;;9.27;7.10;;;;;;;;;;5048870;28;20181;-61
2022/11/17 05:21:29;;;;;;;9.98;7.65;;;;;;;;;;5039622;28;20235;-61
2022/11/17 05:23:55;;;;;;;9.35;8.20;;;;;;;;;;5035813;28;20210;-60
2022/11/17 05:26:24;;;;;;;10.88;8.20;;;;;;;;;;5036429;28;20271;-60
2022/11/17 05:28:53;;;;;;;8.65;7.03;;;;;;;;;;5035437;28;20225;-60
2022/11/17 05:31:20;;;;;;;8.15;6.30;;;;;;;;;;5035398;28;20202;-62
2022/11/17 05:33:47;;;;;;;7.70;6.60;;;;;;;;;;5034906;28;20215;-60
2022/11/17 05:36:14;;;;;;;9.57;7.28;;;;;;;;;;5024432;28;20286;-60
2022/11/17 05:38:42;;;;;;;8.45;7.35;;;;;;;;;;5035784;28;20237;-62
2022/11/17 05:41:09;;;;;;;9.27;7.38;;;;;;;;;;5035297;28;20202;-60
2022/11/17 05:43:36;;;;;;;7.38;6.65;;;;;;;;;;5034641;28;20215;-60
2022/11/17 05:46:04;;;;;;;8.48;7.43;;;;;;;;;;5035321;28;20202;-61
2022/11/17 05:48:32;;;;;;;7.90;7.10;;;;;;;;;;5035498;28;20564;-60
2022/11/17 05:50:59;;;;;;;10.23;7.75;;;;;;;;;;5035631;28;20202;-60
2022/11/17 05:53:27;;;;;;;10.20;7.57;;;;;;;;;;5035415;28;20224;-61
2022/11/17 05:56:07;;;;;;;9.60;7.20;;;;;;;;;;5035243;28;20217;-61
2022/11/17 05:58:37;;;;;;;9.70;7.80;;;;;;;;;;5035485;28;20205;-60
2022/11/17 06:01:05;;;;;;;9.95;8.10;;;;;;;;;;5034710;28;20651;-61
2022/11/17 06:03:35;;;;;;;8.10;7.28;;;;;;;;;;5035140;28;20222;-61
2022/11/17 06:06:02;;;;;;;12.13;7.57;;;;;;;;;;5035062;28;20206;-60
2022/11/17 06:08:29;;;;;;;13.75;8.23;;;;;;;;;;5035423;28;20213;-60
2022/11/17 06:10:56;;;;;;;9.25;8.25;;;;;;;;;;5035149;28;20232;-60
2022/11/17 06:13:27;;;;;;;11.05;8.10;;;;;;;;;;5035232;28;20226;-59
2022/11/17 06:15:55;;;;;;;9.40;7.55;;;;;;;;;;5036737;28;20189;-60
2022/11/17 06:18:26;;;;;;;11.00;8.40;;;;;;;;;;5038783;28;20211;-60
2022/11/17 06:20:53;;;;;;;10.20;7.97;;;;;;;;;;5036875;28;20183;-61
2022/11/17 06:23:21;;;;;;;9.75;8.05;;;;;;;;;;5037782;28;20269;-60
2022/11/17 06:25:48;;;;;;;13.25;8.80;;;;;;;;;;5037995;28;20219;-60
2022/11/17 06:28:17;;;;;;;11.75;9.43;;;;;;;;;;5035958;28;20213;-60
2022/11/17 06:30:44;;;;;;;12.10;9.05;;;;;;;;;;5034543;28;20226;-60
2022/11/17 06:33:13;;;;;;;14.57;9.50;;;;;;;;;;5034720;28;20233;-59
2022/11/17 06:35:43;;;;;;;12.30;9.57;;;;;;;;;;5035306;28;20198;-60
2022/11/17 06:38:10;;;;;;;14.65;10.77;;;;;;;;;;5035437;28;20194;-61
2022/11/17 06:40:37;;;;;;;12.40;9.88;;;;;;;;;;5034497;28;20205;-60
2022/11/17 06:43:08;;;;;;;13.75;9.68;;;;;;;;;;5034486;28;20229;-60
2022/11/17 06:45:35;;;;;;;13.88;10.35;;;;;;;;;;5034602;28;20600;-61
2022/11/17 06:48:02;;;;;;;14.82;11.10;;;;;;;;;;5034000;28;20206;-60
2022/11/17 06:50:29;;;;;;;15.65;10.20;;;;;;;;;;5033819;28;20229;-60
2022/11/17 06:52:58;;;;;;;17.23;10.77;;;;;;;;;;5033757;28;20229;-60
2022/11/17 06:55:25;;;;;;;14.00;9.70;;;;;;;;;;5033613;28;20698;-60
2022/11/17 06:57:53;;;;;;;14.70;9.82;;;;;;;;;;5033990;28;20572;-60
2022/11/17 07:00:20;;;;;;;12.93;10.35;;;;;;;;;;5033501;28;20209;-60
2022/11/17 07:02:47;;;;;;;13.02;10.25;;;;;;;;;;5033363;28;20222;-60
2022/11/17 07:05:14;;;;;;;15.15;10.38;;;;;;;;;;5033808;28;20210;-61
2022/11/17 07:07:42;;;;;;;14.45;9.52;;;;;;;;;;5033985;28;20206;-60
2022/11/17 07:10:10;;;;;;;16.50;9.93;;;;;;;;;;5033678;28;20630;-60
2022/11/17 07:12:37;;;;;;;14.35;9.88;;;;;;;;;;5033406;28;20550;-61
2022/11/17 07:15:05;;;;;;;16.75;10.20;;;;;;;;;;5033751;28;20209;-60
2022/11/17 07:17:33;;;;;;;16.50;10.88;;;;;;;;;;5035772;28;20202;-59
2022/11/17 07:20:00;;;;;;;15.50;11.02;;;;;;;;;;5037802;28;20613;-59
2022/11/17 07:22:27;;;;;;;13.18;10.45;;;;;;;;;;5039482;28;20320;-60
2022/11/17 07:24:54;;;;;;;14.88;10.50;;;;;;;;;;5034829;28;20206;-62
2022/11/17 07:27:23;;;;;;;13.07;9.85;;;;;;;;;;5036010;28;20198;-62
2022/11/17 07:29:50;;;;;;;14.57;9.18;;;;;;;;;;5036436;28;20588;-60
2022/11/17 07:32:17;;;;;;;17.60;11.30;;;;;;;;;;5036406;28;20226;-61
2022/11/17 07:34:44;;;;;;;17.67;11.25;;;;;;;;;;5035003;28;20273;-63
2022/11/17 07:37:11;;;;;;;14.43;9.68;;;;;;;;;;5035022;28;20280;-62
2022/11/17 07:39:38;;;;;;;16.27;10.75;;;;;;;;;;5034728;28;20203;-63
2022/11/17 07:42:05;;;;;;;14.98;10.02;;;;;;;;;;5036730;28;20721;-63
2022/11/17 07:44:34;;;;;;;16.70;10.55;;;;;;;;;;5033412;28;20209;-61
2022/11/17 07:47:01;;;;;;;15.82;10.73;;;;;;;;;;5033815;28;20304;-59
2022/11/17 07:49:28;;;;;;;15.95;10.20;;;;;;;;;;5032956;28;20585;-60
2022/11/17 07:51:56;;;;;;;16.52;10.45;;;;;;;;;;5032605;28;20218;-61
2022/11/17 07:54:23;;;;;;;16.60;10.55;;;;;;;;;;5033068;28;20561;-61
2022/11/17 07:56:50;;;;;;;14.48;9.90;;;;;;;;;;5033014;28;20579;-60
2022/11/17 07:59:17;;;;;;;15.95;9.43;;;;;;;;;;5032805;28;20198;-61
2022/11/17 08:01:45;;;;;;;13.25;9.48;;;;;;;;;;5032636;28;20238;-60
2022/11/17 08:04:13;;;;;;;16.15;11.73;;;;;;;;;;5031388;28;20453;-60
2022/11/17 08:06:40;;;;;;;14.55;10.60;;;;;;;;;;5032741;28;20224;-60
2022/11/17 08:09:09;;;;;;;18.02;10.65;;;;;;;;;;5032792;28;20213;-60
2022/11/17 08:11:36;;;;;;;15.77;11.27;;;;;;;;;;5032929;28;20256;-61
2022/11/17 08:14:03;;;;;;;17.02;11.10;;;;;;;;;;5032849;28;20206;-60
2022/11/17 08:16:32;;;;;;;13.82;9.30;;;;;;;;;;5033025;28;20221;-61
2022/11/17 08:19:00;;;;;;;15.73;10.63;;;;;;;;;;5032361;28;20225;-60
2022/11/17 08:21:27;;;;;;;16.10;10.90;;;;;;;;;;5032948;28;20199;-60
2022/11/17 08:23:55;;;;;;;21.17;12.82;;;;;;;;;;5032233;28;20214;-60
2022/11/17 08:26:23;;;;;;;22.50;15.18;;;;;;;;;;5032626;28;20285;-60
2022/11/17 08:28:51;;;;;;;31.48;17.27;;;;;;;;;;5032204;28;20200;-61
2022/11/17 08:31:18;;;;;;;27.20;18.45;;;;;;;;;;5032285;28;20702;-60
2022/11/17 08:33:45;;;;;;;33.05;18.30;;;;;;;;;;5031944;28;20694;-60
2022/11/17 08:36:13;;;;;;;27.08;15.95;;;;;;;;;;5032433;28;20214;-61
2022/11/17 08:38:40;;;;;;;25.15;14.68;;;;;;;;;;5032612;28;20198;-61
2022/11/17 08:41:09;;;;;;;21.15;13.85;;;;;;;;;;5031923;28;20191;-61
2022/11/17 08:43:36;;;;;;;22.75;14.50;;;;;;;;;;5032152;28;20222;-61
2022/11/17 08:46:03;;;;;;;19.10;12.40;;;;;;;;;;5032646;28;20627;-61
2022/11/17 08:48:31;;;;;;;20.48;12.82;;;;;;;;;;5032448;28;20737;-62
2022/11/17 08:50:59;;;;;;;20.35;12.60;;;;;;;;;;5032563;28;20698;-62
2022/11/17 08:53:27;;;;;;;18.25;11.55;;;;;;;;;;5032960;28;20222;-61
2022/11/17 08:55:54;;;;;;;17.80;10.80;;;;;;;;;;5034410;28;20224;-63
2022/11/17 08:58:22;;;;;;;13.95;8.23;;;;;;;;;;5036588;28;20281;-63
2022/11/17 09:00:49;;;;;;;11.90;8.13;;;;;;;;;;5036696;28;20217;-61
2022/11/17 09:03:16;;;;;;;11.90;8.70;;;;;;;;;;5036921;28;20226;-62
2022/11/17 09:05:45;;;;;;;10.05;7.32;;;;;;;;;;5036370;28;20203;-61
2022/11/17 09:08:13;;;;;;;8.90;6.55;;;;;;;;;;5036478;28;20207;-63
2022/11/17 09:10:42;;;;;;;8.98;6.65;;;;;;;;;;5037532;28;20685;-63
2022/11/17 09:13:09;;;;;;;10.43;6.53;;;;;;;;;;5038302;28;20313;-61
2022/11/17 09:15:36;;;;;;;10.65;6.78;;;;;;;;;;5038492;28;20202;-61
2022/11/17 09:18:03;;;;;;;9.40;7.32;;;;;;;;;;5037796;28;20218;-62
2022/11/17 09:20:30;;;;;;;8.55;6.15;;;;;;;;;;5036907;28;20210;-63
2022/11/17 09:23:01;;;;;;;9.23;6.57;;;;;;;;;;5036884;28;20272;-61
2022/11/17 09:25:28;;;;;;;7.13;6.22;;;;;;;;;;5036264;28;20187;-61
2022/11/17 09:27:56;;;;;;;9.45;6.85;;;;;;;;;;5036632;28;20206;-62
2022/11/17 09:30:23;;;;;;;8.52;5.88;;;;;;;;;;5036537;28;20218;-61
2022/11/17 09:32:51;;;;;;;11.73;6.60;;;;;;;;;;5037294;28;20226;-62
2022/11/17 09:35:18;;;;;;;6.85;5.60;;;;;;;;;;5036750;28;20207;-62
2022/11/17 09:37:47;;;;;;;8.13;6.35;;;;;;;;;;5036367;28;20260;-62
2022/11/17 09:40:16;;;;;;;8.15;6.50;;;;;;;;;;5036302;28;20198;-61
2022/11/17 09:42:43;;;;;;;8.18;6.45;;;;;;;;;;5036650;28;20222;-62
2022/11/17 09:45:16;;;;;;;8.27;5.95;;;;;;;;;;5035429;28;20206;-60
2022/11/17 09:47:44;;;;;;;11.68;6.32;;;;;;;;;;5035915;28;20187;-62
2022/11/17 09:50:18;;;;;;;8.43;6.32;;;;;;;;;;5036358;28;20233;-62
2022/11/17 09:52:49;;;;;;;6.15;5.30;;;;;;;;;;5035740;28;20217;-61
2022/11/17 09:55:23;;;;;;;9.98;7.25;;;;;;;;;;5035347;28;20190;-62
2022/11/17 09:57:52;;;;;;;7.28;6.25;;;;;;;;;;5035532;28;20209;-61
2022/11/17 10:00:22;;;;;;;8.23;6.28;;;;;;;;;;5035170;28;20220;-60
2022/11/17 10:02:51;;;;;;;9.18;6.05;;;;;;;;;;5035026;28;20230;-62
2022/11/17 10:05:21;;;;;;;7.68;6.40;;;;;;;;;;5034676;28;20670;-62
2022/11/17 10:07:49;;;;;;;6.75;6.00;;;;;;;;;;5034582;28;20206;-62
2022/11/17 10:10:18;;;;;;;8.30;6.60;;;;;;;;;;5034877;28;20248;-61
2022/11/17 10:12:48;;;;;;;7.18;6.18;;;;;;;;;;5034952;28;20233;-62
2022/11/17 10:15:23;;;;;;;8.48;6.65;;;;;;;;;;5035708;28;20202;-62
2022/11/17 10:17:51;;;;;;;8.32;6.15;;;;;;;;;;5034877;28;20209;-62
2022/11/17 10:20:18;;;;;;;10.05;6.55;;;;;;;;;;5035245;28;20203;-61
2022/11/17 10:22:46;;;;;;;7.28;6.07;;;;;;;;;;5092200;22;21280;-62
2022/11/17 10:25:36;;;;;;;8.98;6.70;;;;;;;;;;5054537;28;20186;-62
2022/11/17 10:28:04;;;;;;;8.25;5.68;;;;;;;;;;5054686;28;20243;-62
2022/11/17 10:30:32;;;;;;;8.77;7.25;;;;;;;;;;5054711;28;20225;-62
2022/11/17 10:33:00;;;;;;;8.80;6.18;;;;;;;;;;5054607;28;20231;-63
2022/11/17 10:35:29;;;;;;;8.95;6.50;;;;;;;;;;5054470;28;20201;-62
2022/11/17 10:37:57;;;;;;;7.75;6.18;;;;;;;;;;5053960;28;20210;-62
2022/11/17 10:40:25;;;;;;;7.63;5.65;;;;;;;;;;5054227;28;20197;-60
2022/11/17 10:42:58;;;;;;;6.95;5.72;;;;;;;;;;5054716;28;20217;-61
2022/11/17 10:45:25;;;;;;;8.48;5.63;;;;;;;;;;5054275;28;20205;-62
2022/11/17 10:48:07;;;;;;;7.63;5.88;;;;;;;;;;5054227;28;20202;-62
2022/11/17 10:50:34;;;;;;;6.80;5.80;;;;;;;;;;5053990;28;20210;-61
2022/11/17 10:53:23;;;;;;;10.55;6.82;;;;;;;;;;5053986;28;20225;-63
2022/11/17 10:55:54;;;;;;;7.90;6.30;;;;;;;;;;5054394;28;20193;-63
2022/11/17 10:58:25;;;;;;;7.30;6.28;;;;;;;;;;5054039;28;20529;-62
2022/11/17 11:00:53;;;;;;;7.05;5.60;;;;;;;;;;5054000;28;20186;-61
2022/11/17 11:03:23;;;;;;;7.10;5.55;;;;;;;;;;5054265;28;20670;-62
2022/11/17 11:06:04;;;;;;;7.95;5.95;;;;;;;;;;5053861;28;20189;-63
2022/11/17 11:08:36;;;;;;;8.00;6.28;;;;;;;;;;5053772;28;20185;-62
2022/11/17 11:11:07;;;;;;;7.55;5.53;;;;;;;;;;5053364;28;20206;-62
2022/11/17 11:13:37;;;;;;;9.25;5.10;;;;;;;;;;5053708;28;20855;-62
2022/11/17 11:16:05;;;;;;;7.80;6.10;;;;;;;;;;5053738;28;20193;-61
2022/11/17 11:18:33;;;;;;;6.25;5.30;;;;;;;;;;5053041;28;20301;-61
2022/11/17 11:21:07;;;;;;;7.68;5.95;;;;;;;;;;5053712;28;20202;-61
2022/11/17 11:23:39;;;;;;;6.68;5.57;;;;;;;;;;5053068;28;20229;-62
2022/11/17 11:26:13;;;;;;;7.75;5.80;;;;;;;;;;5053473;28;20209;-61
2022/11/17 11:28:47;;;;;;;6.15;4.85;;;;;;;;;;5053130;28;20190;-62
2022/11/17 11:31:19;;;;;;;6.40;5.00;;;;;;;;;;5053052;28;20206;-61
2022/11/17 11:33:51;;;;;;;6.35;4.80;;;;;;;;;;5053203;28;20230;-62
2022/11/17 11:36:24;;;;;;;5.07;4.55;;;;;;;;;;5053118;28;20190;-62
2022/11/17 11:38:56;;;;;;;6.85;5.95;;;;;;;;;;5053496;28;20193;-62
2022/11/17 11:41:37;;;;;;;6.07;4.53;;;;;;;;;;5052757;28;20662;-63
2022/11/17 11:44:14;;;;;;;7.40;5.45;;;;;;;;;;5052943;28;20589;-63
2022/11/17 11:46:47;;;;;;;7.15;4.93;;;;;;;;;;5053000;28;20190;-63
2022/11/17 11:49:18;;;;;;;7.25;5.47;;;;;;;;;;5053198;28;20186;-62
2022/11/17 11:51:47;;;;;;;5.18;4.20;;;;;;;;;;5053025;28;20546;-63
2022/11/17 11:54:17;;;;;;;5.30;4.60;;;;;;;;;;5053046;28;20229;-62
2022/11/17 11:56:46;;;;;;;6.47;4.63;;;;;;;;;;5052956;28;20182;-61
2022/11/17 11:59:15;;;;;;;5.45;4.95;;;;;;;;;;5052617;28;20214;-63
2022/11/17 12:01:44;;;;;;;5.00;4.50;;;;;;;;;;5052584;28;20197;-62
2022/11/17 12:04:15;;;;;;;6.93;5.10;;;;;;;;;;5053590;28;20232;-64
2022/11/17 12:06:48;;;;;;;8.30;5.97;;;;;;;;;;5053366;28;20193;-63
2022/11/17 12:09:42;;;;;;;4.82;4.15;;;;;;;;;;5052068;28;20703;-61
2022/11/17 12:12:14;;;;;;;7.97;5.40;;;;;;;;;;5028327;28;20228;-62
2022/11/17 12:15:01;;;;;;;6.60;5.70;;;;;;;;;;5052951;28;20240;-62
2022/11/17 12:17:29;;;;;;;5.32;4.80;;;;;;;;;;5053018;28;20204;-61
2022/11/17 12:19:58;;;;;;;4.85;4.35;;;;;;;;;;5052985;28;20205;-61
2022/11/17 12:22:46;;;;;;;6.25;5.50;;;;;;;;;;5052148;28;20197;-63
2022/11/17 12:25:17;;;;;;;5.10;4.70;;;;;;;;;;5034920;28;20197;-62
2022/11/17 12:27:46;;;;;;;6.68;5.55;;;;;;;;;;5052525;28;20197;-62
2022/11/17 12:30:31;;;;;;;7.90;4.70;;;;;;;;;;5052745;28;20212;-62
2022/11/17 12:33:00;;;;;;;5.63;5.05;;;;;;;;;;5056518;28;20221;-63
2022/11/17 12:35:28;;;;;;;7.60;4.00;;;;;;;;;;5056308;28;20210;-62
2022/11/17 12:38:14;;;;;;;4.90;4.03;;;;;;;;;;5056604;28;20204;-62
2022/11/17 12:40:43;;;;;;;7.47;4.70;;;;;;;;;;5057240;28;20214;-62
2022/11/17 12:43:20;;;;;;;4.90;4.35;;;;;;;;;;5057043;28;20222;-62
2022/11/17 12:46:06;;;;;;;5.43;4.50;;;;;;;;;;5056718;28;20208;-63
2022/11/17 12:48:35;;;;;;;6.03;3.78;;;;;;;;;;5056689;28;20201;-62
2022/11/17 12:51:05;;;;;;;5.18;4.47;;;;;;;;;;5056232;28;20224;-62
2022/11/17 12:53:40;;;;;;;5.57;4.03;;;;;;;;;;5056941;28;20283;-62
2022/11/17 12:56:24;;;;;;;4.60;4.20;;;;;;;;;;5056478;28;20189;-62
2022/11/17 12:59:09;;;;;;;4.63;4.22;;;;;;;;;;5056027;28;20193;-61
2022/11/17 13:01:41;;;;;;;6.10;4.45;;;;;;;;;;5055954;28;20186;-63
2022/11/17 13:04:10;;;;;;;4.80;4.18;;;;;;;;;;5056518;28;20256;-63
2022/11/17 13:06:37;;;;;;;5.82;4.50;;;;;;;;;;5056413;28;20201;-63
2022/11/17 13:09:06;;;;;;;5.75;4.90;;;;;;;;;;5055860;28;20198;-61
2022/11/17 13:11:34;;;;;;;5.63;4.72;;;;;;;;;;5055624;28;20218;-61
2022/11/17 13:14:08;;;;;;;7.68;4.80;;;;;;;;;;5055373;28;20229;-63
2022/11/17 13:16:36;;;;;;;5.22;4.72;;;;;;;;;;5055968;28;20205;-62
2022/11/17 13:19:03;;;;;;;5.47;4.43;;;;;;;;;;5055844;28;20201;-62
2022/11/17 13:21:33;;;;;;;5.30;4.80;;;;;;;;;;5056074;28;20700;-63
2022/11/17 13:24:00;;;;;;;7.43;4.47;;;;;;;;;;5056560;28;20240;-61
2022/11/17 13:26:30;;;;;;;6.15;5.13;;;;;;;;;;5054985;28;20693;-62
2022/11/17 13:29:04;;;;;;;8.10;6.47;;;;;;;;;;5054824;28;20680;-62
2022/11/17 13:31:31;;;;;;;5.40;4.90;;;;;;;;;;5054657;28;20701;-62
2022/11/17 13:34:02;;;;;;;5.63;4.45;;;;;;;;;;5055217;28;20589;-62
2022/11/17 13:36:29;;;;;;;6.85;5.03;;;;;;;;;;5055360;28;20646;-61
2022/11/17 13:38:59;;;;;;;5.25;4.75;;;;;;;;;;5055534;28;20206;-60
2022/11/17 13:41:27;;;;;;;4.78;4.30;;;;;;;;;;5054091;28;20579;-62
2022/11/17 13:43:54;;;;;;;6.75;5.05;;;;;;;;;;5055012;28;20252;-62
2022/11/17 13:46:22;;;;;;;6.15;4.90;;;;;;;;;;5055001;28;20202;-62
2022/11/17 13:48:50;;;;;;;5.30;4.78;;;;;;;;;;5054944;28;20209;-62
2022/11/17 13:51:21;;;;;;;4.35;3.95;;;;;;;;;;5054600;28;20213;-62
2022/11/17 13:53:50;;;;;;;5.13;4.63;;;;;;;;;;5054918;28;20279;-63
2022/11/17 13:56:29;;;;;;;5.47;4.65;;;;;;;;;;5055091;28;20229;-61
2022/11/17 13:58:57;;;;;;;5.80;5.20;;;;;;;;;;5054865;28;20561;-62
2022/11/17 14:01:27;;;;;;;5.07;4.57;;;;;;;;;;5054731;28;20198;-62
2022/11/17 14:04:12;;;;;;;4.90;4.05;;;;;;;;;;5054583;28;20728;-63
2022/11/17 14:06:52;;;;;;;4.63;4.22;;;;;;;;;;5054717;28;20190;-62
2022/11/17 14:09:19;;;;;;;4.32;4.03;;;;;;;;;;5054449;28;20182;-62
2022/11/17 14:11:48;;;;;;;6.18;4.55;;;;;;;;;;5054511;28;20716;-63
2022/11/17 14:14:19;;;;;;;4.93;4.53;;;;;;;;;;5054530;28;20234;-62
2022/11/17 14:16:46;;;;;;;4.90;4.25;;;;;;;;;;5054918;28;20197;-64
2022/11/17 14:19:27;;;;;;;5.32;4.40;;;;;;;;;;5054599;28;20206;-62
2022/11/17 14:22:01;;;;;;;4.80;4.30;;;;;;;;;;5054252;28;20202;-63
2022/11/17 14:24:29;;;;;;;5.00;4.50;;;;;;;;;;5054025;28;20260;-62
2022/11/17 14:26:58;;;;;;;5.00;4.28;;;;;;;;;;5054519;28;20202;-62
2022/11/17 14:29:26;;;;;;;4.70;4.22;;;;;;;;;;5054809;28;20254;-63
2022/11/17 14:31:53;;;;;;;5.20;4.70;;;;;;;;;;5054650;28;20260;-63
2022/11/17 14:34:20;;;;;;;6.40;4.50;;;;;;;;;;5054516;28;20350;-61
2022/11/17 14:36:48;;;;;;;5.28;4.30;;;;;;;;;;5054621;28;20198;-62
2022/11/17 14:39:16;;;;;;;4.68;4.07;;;;;;;;;;5054549;28;20228;-62
2022/11/17 14:41:43;;;;;;;4.90;4.50;;;;;;;;;;5054345;28;20206;-62
2022/11/17 14:44:12;;;;;;;4.32;3.92;;;;;;;;;;5054078;28;20229;-62
2022/11/17 14:46:39;;;;;;;5.63;5.13;;;;;;;;;;5054269;28;20197;-63
2022/11/17 14:49:07;;;;;;;5.57;4.80;;;;;;;;;;5053926;28;20208;-63
2022/11/17 14:51:34;;;;;;;6.00;5.35;;;;;;;;;;5054097;28;20221;-62
2022/11/17 14:54:01;;;;;;;8.55;5.05;;;;;;;;;;5053122;28;20641;-62
2022/11/17 14:56:29;;;;;;;5.38;4.88;;;;;;;;;;5053962;28;20212;-62
2022/11/17 14:58:57;;;;;;;4.80;4.30;;;;;;;;;;5053879;28;20635;-61
2022/11/17 15:01:27;;;;;;;4.80;4.22;;;;;;;;;;5053655;28;20201;-61
2022/11/17 15:03:55;;;;;;;6.00;4.90;;;;;;;;;;5053987;28;20312;-62
2022/11/17 15:06:23;;;;;;;5.57;4.22;;;;;;;;;;5053978;28;20232;-63
2022/11/17 15:08:53;;;;;;;5.32;4.80;;;;;;;;;;5054012;28;20206;-63
2022/11/17 15:11:20;;;;;;;5.00;4.50;;;;;;;;;;5053415;28;20584;-62
2022/11/17 15:13:48;;;;;;;4.55;4.15;;;;;;;;;;5053149;28;20226;-62
2022/11/17 15:16:15;;;;;;;4.22;3.92;;;;;;;;;;5053481;28;20202;-62